createdAt,value
2018-09-29T00:00:29.356Z,80.29
2018-09-29T00:01:28.138Z,80.10
2018-09-29T00:02:42.073Z,79.81
2018-09-29T00:04:37.891Z,80.38
2018-09-29T00:05:54.695Z,79.91
2018-09-29T00:06:55.933Z,80.24
2018-09-29T00:07:51.537Z,80.10
2018-09-29T00:08:54.830Z,80.10
2018-09-29T00:12:25.264Z,80.63
2018-09-29T00:13:43.091Z,80.91
2018-09-29T00:16:45.985Z,80.63
2018-09-29T00:17:49.784Z,80.44
2018-09-29T00:20:10.486Z,79.96
2018-09-29T00:21:02.813Z,80.05
2018-09-29T00:22:30.372Z,79.96
2018-09-29T00:23:44.612Z,80.44
2018-09-29T00:24:44.721Z,80.53
2018-09-29T00:25:31.212Z,80.53
2018-09-29T00:27:45.468Z,79.96
2018-09-29T00:28:44.049Z,79.86
2018-09-29T00:30:03.916Z,79.77
2018-09-29T00:30:51.637Z,80.05
2018-09-29T00:32:04.443Z,80.24
2018-09-29T00:32:56.261Z,80.72
2018-09-29T00:34:14.188Z,80.24
2018-09-29T00:36:37.041Z,80.53
2018-09-29T00:37:38.175Z,80.34
2018-09-29T00:38:33.271Z,80.63
2018-09-29T00:39:30.413Z,80.05
2018-09-29T00:41:39.445Z,80.44
2018-09-29T00:42:33.208Z,80.63
2018-09-29T00:43:22.672Z,80.53
2018-09-29T00:44:30.564Z,80.53
2018-09-29T00:46:00.990Z,80.72
2018-09-29T00:46:44.097Z,80.63
2018-09-29T00:48:19.949Z,80.63
2018-09-29T00:49:49.138Z,80.82
2018-09-29T00:51:37.996Z,80.82
2018-09-29T00:53:16.920Z,81.29
2018-09-29T00:54:16.627Z,80.96
2018-09-29T00:55:54.829Z,81.63
2018-09-29T00:57:23.712Z,81.44
2018-09-29T00:58:20.445Z,81.54
2018-09-29T00:59:28.335Z,82.01
2018-09-29T01:00:37.359Z,82.01
2018-09-29T01:01:42.281Z,82.49
2018-09-29T01:02:58.166Z,82.39
2018-09-29T01:03:35.646Z,82.49
2018-09-29T01:04:58.081Z,82.29
2018-09-29T01:06:17.141Z,82.39
2018-09-29T01:07:13.563Z,82.68
2018-09-29T01:08:33.847Z,82.77
2018-09-29T01:09:31.809Z,82.68
2018-09-29T01:11:30.706Z,82.10
2018-09-29T01:13:34.513Z,82.68
2018-09-29T01:14:34.313Z,82.58
2018-09-29T01:16:14.875Z,82.20
2018-09-29T01:16:45.185Z,82.49
2018-09-29T01:18:03.320Z,82.87
2018-09-29T01:19:18.387Z,82.68
2018-09-29T01:20:46.862Z,82.77
2018-09-29T01:21:34.992Z,82.77
2018-09-29T01:22:32.959Z,82.58
2018-09-29T01:23:25.894Z,82.87
2018-09-29T01:24:45.975Z,82.68
2018-09-29T01:25:49.775Z,82.68
2018-09-29T01:27:12.727Z,82.49
2018-09-29T01:27:45.695Z,82.77
2018-09-29T01:30:17.457Z,82.58
2018-09-29T01:32:11.323Z,81.92
2018-09-29T01:33:51.272Z,82.29
2018-09-29T01:34:29.467Z,82.49
2018-09-29T01:36:52.630Z,82.68
2018-09-29T01:37:40.554Z,82.77
2018-09-29T01:38:59.917Z,82.58
2018-09-29T01:39:52.044Z,82.49
2018-09-29T01:40:55.850Z,82.77
2018-09-29T01:41:57.385Z,82.58
2018-09-29T01:43:18.594Z,81.82
2018-09-29T01:44:11.741Z,82.20
2018-09-29T01:45:23.526Z,82.01
2018-09-29T01:46:25.790Z,81.92
2018-09-29T01:47:46.485Z,81.92
2018-09-29T01:49:04.322Z,81.25
2018-09-29T01:49:40.359Z,81.25
2018-09-29T01:50:32.177Z,81.06
2018-09-29T01:51:59.321Z,81.25
2018-09-29T01:53:11.004Z,81.35
2018-09-29T01:54:11.322Z,81.16
2018-09-29T01:55:10.819Z,81.16
2018-09-29T01:57:15.247Z,81.35
2018-09-29T01:58:21.907Z,81.25
2018-09-29T01:59:35.536Z,81.06
2018-09-29T02:01:35.356Z,81.21
2018-09-29T02:02:40.373Z,81.35
2018-09-29T02:04:00.249Z,81.54
2018-09-29T02:04:52.175Z,81.16
2018-09-29T02:06:18.084Z,81.25
2018-09-29T02:07:08.982Z,81.25
2018-09-29T02:09:29.170Z,80.68
2018-09-29T02:10:32.967Z,80.58
2018-09-29T02:11:38.610Z,80.77
2018-09-29T02:12:42.816Z,80.87
2018-09-29T02:13:50.812Z,80.68
2018-09-29T02:14:49.702Z,80.40
2018-09-29T02:15:51.547Z,79.83
2018-09-29T02:18:10.202Z,80.16
2018-09-29T02:19:06.522Z,80.02
2018-09-29T02:20:21.075Z,80.26
2018-09-29T02:21:33.986Z,80.07
2018-09-29T02:22:34.098Z,80.07
2018-09-29T02:24:38.825Z,81.12
2018-09-29T02:25:43.853Z,81.21
2018-09-29T02:26:55.640Z,80.93
2018-09-29T02:27:48.993Z,81.21
2018-09-29T02:29:00.594Z,81.40
2018-09-29T02:30:02.030Z,81.21
2018-09-29T02:31:00.287Z,81.40
2018-09-29T02:32:26.412Z,81.30
2018-09-29T02:33:27.446Z,81.40
2018-09-29T02:34:39.434Z,81.40
2018-09-29T02:36:40.988Z,81.49
2018-09-29T02:37:37.105Z,81.30
2018-09-29T02:39:57.602Z,81.21
2018-09-29T02:42:02.650Z,81.59
2018-09-29T02:43:07.359Z,81.21
2018-09-29T02:44:11.770Z,81.21
2018-09-29T02:45:20.280Z,81.21
2018-09-29T02:47:27.465Z,81.21
2018-09-29T02:48:37.306Z,80.74
2018-09-29T02:49:35.267Z,81.12
2018-09-29T02:50:45.111Z,81.12
2018-09-29T02:52:53.215Z,81.40
2018-09-29T02:55:01.014Z,81.97
2018-09-29T02:56:21.505Z,82.07
2018-09-29T02:57:15.370Z,81.97
2018-09-29T02:58:22.447Z,81.59
2018-09-29T03:00:33.420Z,81.49
2018-09-29T03:01:38.037Z,80.93
2018-09-29T03:03:43.798Z,81.59
2018-09-29T03:05:03.981Z,81.12
2018-09-29T03:05:57.940Z,81.12
2018-09-29T03:09:23.772Z,81.78
2018-09-29T03:10:28.284Z,81.78
2018-09-29T03:11:31.572Z,81.45
2018-09-29T03:13:37.018Z,81.55
2018-09-29T03:14:46.756Z,81.26
2018-09-29T03:15:46.868Z,81.36
2018-09-29T03:16:54.969Z,81.74
2018-09-29T03:18:03.065Z,81.84
2018-09-29T03:19:07.833Z,81.84
2018-09-29T03:20:06.050Z,82.12
2018-09-29T03:21:19.989Z,81.93
2018-09-29T03:22:30.851Z,81.93
2018-09-29T03:24:33.647Z,82.50
2018-09-29T03:25:37.431Z,82.59
2018-09-29T03:26:39.283Z,82.31
2018-09-29T03:27:59.362Z,82.21
2018-09-29T03:28:53.033Z,82.03
2018-09-29T03:30:02.351Z,82.31
2018-09-29T03:31:08.102Z,82.21
2018-09-29T03:32:17.933Z,82.21
2018-09-29T03:33:20.808Z,82.31
2018-09-29T03:34:31.158Z,82.50
2018-09-29T03:35:23.796Z,82.78
2018-09-29T03:36:42.441Z,82.69
2018-09-29T03:38:50.656Z,83.26
2018-09-29T03:39:54.453Z,83.07
2018-09-29T03:41:00.196Z,83.07
2018-09-29T03:42:04.199Z,83.16
2018-09-29T03:43:09.225Z,83.16
2018-09-29T03:44:10.770Z,83.26
2018-09-29T03:45:20.818Z,82.78
2018-09-29T03:47:29.955Z,82.03
2018-09-29T03:48:30.793Z,82.31
2018-09-29T03:49:38.875Z,82.40
2018-09-29T03:51:52.413Z,82.31
2018-09-29T03:52:53.342Z,82.50
2018-09-29T03:54:05.233Z,82.50
2018-09-29T03:56:10.775Z,82.40
2018-09-29T03:57:22.052Z,81.74
2018-09-29T03:58:22.881Z,82.21
2018-09-29T03:59:28.522Z,82.21
2018-09-29T04:00:35.801Z,82.31
2018-09-29T04:01:37.858Z,82.21
2018-09-29T04:03:48.629Z,82.40
2018-09-29T04:05:01.438Z,82.50
2018-09-29T04:06:05.030Z,82.78
2018-09-29T04:07:08.932Z,82.59
2018-09-29T04:08:20.205Z,82.50
2018-09-29T04:09:19.905Z,82.31
2018-09-29T04:11:32.829Z,82.50
2018-09-29T04:12:36.831Z,82.50
2018-09-29T04:13:40.050Z,82.78
2018-09-29T04:14:56.511Z,82.69
2018-09-29T04:15:52.837Z,82.88
2018-09-29T04:16:56.327Z,82.69
2018-09-29T04:19:02.385Z,82.59
2018-09-29T04:22:24.017Z,82.97
2018-09-29T04:23:35.801Z,82.84
2018-09-29T04:24:32.846Z,82.78
2018-09-29T04:25:46.883Z,82.40
2018-09-29T04:26:43.615Z,82.27
2018-09-29T04:27:50.688Z,82.40
2018-09-29T04:29:04.522Z,82.50
2018-09-29T04:30:05.143Z,82.40
2018-09-29T04:31:08.325Z,82.31
2018-09-29T04:32:17.963Z,82.50
2018-09-29T04:33:11.006Z,82.59
2018-09-29T04:34:28.935Z,82.50
2018-09-29T04:35:29.970Z,82.59
2018-09-29T04:36:51.277Z,82.31
2018-09-29T04:37:40.023Z,82.21
2018-09-29T04:38:51.810Z,82.55
2018-09-29T04:39:50.384Z,82.59
2018-09-29T04:40:59.609Z,82.55
2018-09-29T04:42:05.556Z,82.50
2018-09-29T04:43:10.118Z,82.46
2018-09-29T04:44:14.071Z,82.50
2018-09-29T04:45:17.358Z,82.55
2018-09-29T04:46:27.095Z,83.22
2018-09-29T04:47:27.921Z,83.12
2018-09-29T04:48:38.377Z,82.55
2018-09-29T04:49:43.915Z,82.27
2018-09-29T04:50:50.171Z,81.70
2018-09-29T04:51:58.063Z,81.88
2018-09-29T04:53:01.757Z,81.88
2018-09-29T04:54:04.529Z,81.79
2018-09-29T04:56:18.371Z,81.17
2018-09-29T04:57:21.349Z,81.04
2018-09-29T04:59:28.635Z,81.04
2018-09-29T05:00:33.455Z,81.13
2018-09-29T05:01:46.983Z,80.75
2018-09-29T05:02:52.627Z,81.04
2018-09-29T05:03:59.187Z,80.94
2018-09-29T05:04:56.839Z,80.94
2018-09-29T05:06:03.196Z,81.07
2018-09-29T05:07:07.097Z,81.23
2018-09-29T05:08:11.919Z,81.26
2018-09-29T05:10:23.201Z,81.23
2018-09-29T05:11:37.036Z,81.70
2018-09-29T05:12:40.526Z,81.51
2018-09-29T05:13:33.673Z,81.70
2018-09-29T05:14:50.479Z,82.08
2018-09-29T05:15:59.498Z,82.36
2018-09-29T05:17:08.519Z,82.55
2018-09-29T05:17:59.622Z,82.55
2018-09-29T05:19:12.326Z,82.17
2018-09-29T05:20:22.267Z,82.65
2018-09-29T05:21:29.650Z,82.46
2018-09-29T05:22:31.398Z,82.55
2018-09-29T05:23:43.903Z,82.46
2018-09-29T05:24:31.109Z,82.55
2018-09-29T05:25:41.061Z,82.65
2018-09-29T05:26:56.833Z,82.46
2018-09-29T05:27:51.213Z,82.27
2018-09-29T05:29:04.839Z,82.08
2018-09-29T05:29:57.987Z,82.46
2018-09-29T05:31:10.899Z,82.65
2018-09-29T05:33:25.560Z,83.12
2018-09-29T05:34:29.673Z,83.03
2018-09-29T05:35:29.979Z,83.03
2018-09-29T05:36:37.262Z,82.93
2018-09-29T05:37:53.858Z,83.12
2018-09-29T05:38:43.319Z,83.22
2018-09-29T05:39:50.094Z,83.22
2018-09-29T05:41:02.893Z,83.22
2018-09-29T05:42:12.838Z,82.93
2018-09-29T05:43:21.754Z,82.84
2018-09-29T05:44:09.987Z,83.12
2018-09-29T05:46:32.945Z,82.84
2018-09-29T05:47:45.855Z,82.93
2018-09-29T05:48:44.124Z,82.93
2018-09-29T05:49:42.085Z,83.03
2018-09-29T05:51:04.929Z,82.27
2018-09-29T05:51:57.055Z,83.22
2018-09-29T05:55:13.466Z,83.12
2018-09-29T05:56:16.750Z,83.12
2018-09-29T05:57:28.843Z,83.03
2018-09-29T05:58:36.638Z,83.31
2018-09-29T05:59:37.780Z,83.40
2018-09-29T06:00:45.128Z,83.88
2018-09-29T06:02:54.698Z,83.88
2018-09-29T06:03:52.352Z,83.97
2018-09-29T06:04:57.276Z,84.07
2018-09-29T06:07:18.977Z,84.36
2018-09-29T06:08:25.567Z,84.26
2018-09-29T06:09:29.570Z,84.26
2018-09-29T06:10:39.410Z,84.26
2018-09-29T06:11:28.359Z,84.64
2018-09-29T06:12:48.440Z,84.74
2018-09-29T06:13:47.832Z,85.11
2018-09-29T06:14:54.908Z,85.30
2018-09-29T06:15:56.144Z,84.92
2018-09-29T06:17:03.220Z,85.11
2018-09-29T06:18:08.451Z,85.49
2018-09-29T06:19:14.607Z,85.21
2018-09-29T06:20:30.896Z,85.30
2018-09-29T06:22:38.287Z,85.30
2018-09-29T06:23:39.422Z,85.02
2018-09-29T06:24:44.252Z,84.92
2018-09-29T06:25:53.061Z,85.11
2018-09-29T06:28:05.319Z,85.53
2018-09-29T06:29:08.143Z,85.16
2018-09-29T06:30:09.996Z,85.35
2018-09-29T06:31:17.480Z,85.35
2018-09-29T06:32:27.629Z,85.16
2018-09-29T06:33:32.348Z,85.72
2018-09-29T06:35:44.245Z,85.53
2018-09-29T06:36:40.468Z,85.63
2018-09-29T06:38:56.050Z,85.63
2018-09-29T06:39:58.110Z,86.20
2018-09-29T06:42:04.892Z,86.01
2018-09-29T06:43:09.919Z,85.82
2018-09-29T06:44:21.492Z,85.82
2018-09-29T06:46:34.233Z,85.91
2018-09-29T06:47:39.657Z,85.91
2018-09-29T06:48:42.219Z,85.72
2018-09-29T06:49:52.262Z,86.01
2018-09-29T06:50:54.524Z,86.30
2018-09-29T06:52:04.466Z,86.20
2018-09-29T06:52:59.458Z,86.30
2018-09-29T06:54:07.153Z,86.20
2018-09-29T06:55:17.094Z,86.91
2018-09-29T06:56:18.739Z,86.91
2018-09-29T06:57:26.633Z,86.82
2018-09-29T06:58:26.541Z,86.82
2018-09-29T07:00:42.635Z,87.38
2018-09-29T07:01:50.635Z,87.38
2018-09-29T07:04:01.509Z,87.29
2018-09-29T07:05:02.131Z,88.53
2018-09-29T07:06:18.016Z,88.24
2018-09-29T07:07:20.796Z,87.95
2018-09-29T07:08:21.922Z,87.71
2018-09-29T07:09:25.721Z,88.00
2018-09-29T07:10:30.746Z,88.09
2018-09-29T07:11:41.508Z,87.24
2018-09-29T07:14:02.834Z,87.24
2018-09-29T07:14:58.231Z,87.62
2018-09-29T07:18:17.915Z,87.14
2018-09-29T07:19:23.455Z,86.67
2018-09-29T07:20:36.778Z,86.95
2018-09-29T07:21:35.790Z,86.52
2018-09-29T07:22:41.708Z,86.43
2018-09-29T07:23:43.561Z,86.61
2018-09-29T07:25:03.643Z,86.05
2018-09-29T07:26:16.887Z,85.86
2018-09-29T07:26:56.501Z,86.14
2018-09-29T07:28:08.280Z,86.33
2018-09-29T07:29:36.246Z,86.24
2018-09-29T07:30:34.104Z,86.05
2018-09-29T07:31:34.130Z,85.76
2018-09-29T07:32:46.106Z,85.57
2018-09-29T07:33:49.289Z,85.42
2018-09-29T07:35:05.587Z,85.14
2018-09-29T07:36:05.796Z,84.95
2018-09-29T07:37:21.777Z,85.04
2018-09-29T07:39:16.370Z,84.95
2018-09-29T07:40:44.130Z,84.66
2018-09-29T07:41:38.302Z,84.19
2018-09-29T07:42:46.403Z,84.47
2018-09-29T07:43:55.218Z,84.47
2018-09-29T07:45:14.788Z,84.85
2018-09-29T07:47:02.831Z,84.56
2018-09-29T07:48:20.959Z,85.04
2018-09-29T07:49:35.719Z,84.95
2018-09-29T07:50:41.662Z,84.95
2018-09-29T07:51:53.549Z,84.80
2018-09-29T07:52:28.777Z,84.99
2018-09-29T07:53:54.690Z,84.80
2018-09-29T07:54:52.509Z,84.99
2018-09-29T07:55:33.305Z,85.37
2018-09-29T07:56:51.849Z,85.56
2018-09-29T07:58:04.147Z,84.89
2018-09-29T07:59:07.229Z,84.70
2018-09-29T08:00:04.575Z,84.42
2018-09-29T08:01:13.388Z,84.42
2018-09-29T08:02:23.534Z,84.42
2018-09-29T08:03:24.166Z,84.61
2018-09-29T08:04:29.898Z,84.17
2018-09-29T08:06:49.886Z,84.27
2018-09-29T08:07:54.708Z,84.17
2018-09-29T08:08:46.115Z,84.08
2018-09-29T08:09:47.867Z,84.27
2018-09-29T08:11:00.479Z,84.08
2018-09-29T08:12:15.376Z,83.61
2018-09-29T08:13:06.021Z,83.70
2018-09-29T08:15:13.306Z,84.12
2018-09-29T08:16:28.167Z,83.65
2018-09-29T08:18:32.686Z,83.45
2018-09-29T08:20:08.862Z,83.07
2018-09-29T08:20:43.944Z,83.45
2018-09-29T08:21:49.203Z,83.55
2018-09-29T08:22:53.921Z,83.07
2018-09-29T08:24:01.816Z,82.98
2018-09-29T08:25:04.180Z,82.50
2018-09-29T08:26:14.228Z,82.69
2018-09-29T08:27:19.874Z,83.12
2018-09-29T08:28:17.723Z,83.12
2018-09-29T08:29:27.766Z,82.83
2018-09-29T08:30:46.820Z,82.73
2018-09-29T08:31:39.664Z,82.83
2018-09-29T08:32:42.129Z,82.73
2018-09-29T08:33:56.577Z,82.17
2018-09-29T08:34:56.892Z,82.17
2018-09-29T08:36:01.409Z,81.59
2018-09-29T08:37:10.433Z,81.30
2018-09-29T08:38:07.672Z,81.49
2018-09-29T08:39:10.647Z,80.64
2018-09-29T08:40:25.924Z,81.15
2018-09-29T08:41:26.138Z,80.58
2018-09-29T08:42:34.844Z,80.87
2018-09-29T08:43:44.274Z,80.20
2018-09-29T08:44:48.889Z,80.20
2018-09-29T08:45:57.611Z,80.11
2018-09-29T08:48:02.739Z,79.44
2018-09-29T08:49:08.380Z,78.96
2018-09-29T08:51:12.700Z,78.72
2018-09-29T08:52:24.892Z,78.33
2018-09-29T08:53:37.002Z,78.33
2018-09-29T08:54:42.481Z,77.57
2018-09-29T08:55:28.604Z,77.67
2018-09-29T08:56:41.009Z,77.47
2018-09-29T08:57:57.093Z,77.28
2018-09-29T08:58:56.079Z,76.14
2018-09-29T09:00:07.758Z,76.42
2018-09-29T09:01:22.157Z,76.14
2018-09-29T09:02:28.058Z,76.56
2018-09-29T09:03:38.403Z,77.13
2018-09-29T09:05:29.000Z,76.84
2018-09-29T09:06:44.985Z,76.46
2018-09-29T09:08:03.119Z,76.18
2018-09-29T09:09:51.060Z,76.18
2018-09-29T09:12:13.909Z,75.51
2018-09-29T09:15:24.382Z,74.78
2018-09-29T09:16:25.312Z,74.49
2018-09-29T09:17:51.132Z,74.02
2018-09-29T09:19:39.060Z,73.73
2018-09-29T09:21:00.677Z,73.35
2018-09-29T09:22:05.610Z,73.44
2018-09-29T09:22:59.180Z,73.44
2018-09-29T09:24:13.637Z,73.25
2018-09-29T09:25:19.665Z,72.78
2018-09-29T09:26:18.239Z,72.68
2018-09-29T09:27:17.422Z,72.33
2018-09-29T09:29:37.022Z,70.71
2018-09-29T09:30:33.222Z,69.95
2018-09-29T09:31:43.371Z,70.04
2018-09-29T09:32:44.000Z,69.37
2018-09-29T09:34:02.535Z,69.66
2018-09-29T09:34:58.046Z,69.37
2018-09-29T09:35:58.968Z,69.85
2018-09-29T09:37:12.394Z,69.66
2018-09-29T09:38:28.587Z,69.76
2018-09-29T09:39:27.871Z,69.98
2018-09-29T09:40:29.106Z,69.41
2018-09-29T09:42:40.188Z,68.84
2018-09-29T09:44:53.723Z,68.45
2018-09-29T09:45:59.262Z,67.59
2018-09-29T09:47:05.723Z,66.73
2018-09-29T09:48:09.729Z,67.49
2018-09-29T09:49:24.679Z,67.30
2018-09-29T09:50:19.778Z,65.97
2018-09-29T09:51:17.839Z,65.48
2018-09-29T09:52:28.606Z,65.33
2018-09-29T09:54:38.868Z,65.58
2018-09-29T09:55:46.653Z,65.23
2018-09-29T09:56:44.614Z,64.47
2018-09-29T09:57:57.539Z,64.66
2018-09-29T09:58:58.559Z,64.66
2018-09-29T10:00:07.885Z,64.09
2018-09-29T10:01:05.231Z,64.56
2018-09-29T10:02:12.716Z,64.47
2018-09-29T10:03:15.491Z,64.28
2018-09-29T10:04:25.946Z,64.37
2018-09-29T10:05:34.559Z,64.09
2018-09-29T10:06:36.693Z,64.02
2018-09-29T10:07:53.326Z,63.93
2018-09-29T10:08:59.673Z,63.35
2018-09-29T10:11:19.148Z,62.68
2018-09-29T10:12:19.681Z,63.73
2018-09-29T10:13:16.400Z,64.22
2018-09-29T10:14:29.825Z,62.59
2018-09-29T10:15:27.485Z,62.01
2018-09-29T10:16:39.367Z,61.63
2018-09-29T10:17:49.719Z,61.34
2018-09-29T10:18:52.185Z,61.44
2018-09-29T10:20:10.626Z,61.25
2018-09-29T10:20:56.207Z,61.28
2018-09-29T10:22:07.062Z,61.37
2018-09-29T10:23:02.258Z,61.28
2018-09-29T10:25:26.243Z,61.47
2018-09-29T10:26:35.667Z,61.18
2018-09-29T10:27:25.330Z,61.18
2018-09-29T10:28:49.198Z,61.28
2018-09-29T10:30:01.292Z,61.18
2018-09-29T10:31:49.430Z,59.97
2018-09-29T10:33:07.460Z,59.11
2018-09-29T10:34:22.329Z,58.53
2018-09-29T10:36:00.320Z,59.11
2018-09-29T10:36:44.455Z,59.97
2018-09-29T10:37:40.369Z,59.20
2018-09-29T10:39:18.267Z,59.11
2018-09-29T10:41:09.282Z,57.86
2018-09-29T10:42:42.155Z,57.38
2018-09-29T10:43:13.081Z,57.67
2018-09-29T10:44:31.111Z,57.67
2018-09-29T10:46:41.167Z,57.86
2018-09-29T10:48:02.175Z,57.67
2018-09-29T10:48:54.089Z,57.60
2018-09-29T10:49:46.313Z,57.79
2018-09-29T10:50:56.151Z,57.60
2018-09-29T10:51:54.333Z,57.21
2018-09-29T10:53:01.171Z,57.21
2018-09-29T10:55:22.400Z,55.87
2018-09-29T10:56:25.584Z,55.68
2018-09-29T10:57:12.075Z,56.26
2018-09-29T10:58:23.044Z,56.26
2018-09-29T10:59:36.165Z,56.54
2018-09-29T11:01:33.104Z,55.68
2018-09-29T11:02:49.090Z,55.49
2018-09-29T11:03:47.154Z,55.21
2018-09-29T11:05:00.042Z,55.52
2018-09-29T11:06:00.182Z,54.85
2018-09-29T11:07:06.127Z,55.42
2018-09-29T11:08:21.672Z,55.62
2018-09-29T11:09:17.919Z,55.33
2018-09-29T11:11:24.286Z,55.33
2018-09-29T11:12:44.879Z,54.75
2018-09-29T11:15:48.287Z,53.70
2018-09-29T11:17:00.892Z,53.99
2018-09-29T11:18:03.876Z,53.89
2018-09-29T11:19:07.363Z,53.50
2018-09-29T11:20:11.880Z,53.89
2018-09-29T11:21:15.881Z,52.83
2018-09-29T11:23:27.375Z,53.89
2018-09-29T11:24:40.893Z,53.89
2018-09-29T11:25:32.913Z,53.89
2018-09-29T11:26:53.614Z,53.24
2018-09-29T11:27:55.273Z,53.70
2018-09-29T11:29:02.334Z,54.01
2018-09-29T11:29:59.370Z,54.58
2018-09-29T11:31:03.067Z,54.68
2018-09-29T11:32:29.392Z,54.49
2018-09-29T11:33:15.173Z,54.01
2018-09-29T11:35:32.387Z,53.85
2018-09-29T11:36:35.979Z,53.05
2018-09-29T11:37:36.808Z,51.71
2018-09-29T11:38:44.189Z,52.69
2018-09-29T11:39:49.111Z,53.53
2018-09-29T11:41:59.880Z,52.31
2018-09-29T11:43:06.349Z,52.50
2018-09-29T11:44:16.797Z,52.60
2018-09-29T11:45:21.313Z,52.50
2018-09-29T11:46:26.234Z,52.40
2018-09-29T11:47:32.183Z,50.96
2018-09-29T11:48:40.392Z,51.64
2018-09-29T11:49:49.405Z,51.06
2018-09-29T11:50:41.325Z,51.16
2018-09-29T11:51:59.152Z,50.20
2018-09-29T11:53:02.333Z,50.49
2018-09-29T11:54:06.236Z,49.82
2018-09-29T11:55:09.107Z,50.03
2018-09-29T11:56:13.149Z,50.42
2018-09-29T11:57:14.247Z,50.23
2018-09-29T11:58:26.441Z,50.03
2018-09-29T11:59:38.223Z,50.42
2018-09-29T12:00:34.343Z,49.74
2018-09-29T12:01:46.366Z,49.00
2018-09-29T12:02:57.198Z,48.43
2018-09-29T12:03:53.623Z,49.10
2018-09-29T12:05:02.133Z,49.96
2018-09-29T12:06:01.505Z,49.79
2018-09-29T12:07:09.603Z,48.35
2018-09-29T12:08:19.263Z,48.57
2018-09-29T12:10:23.275Z,47.49
2018-09-29T12:11:43.866Z,46.93
2018-09-29T12:13:44.424Z,42.90
2018-09-29T12:14:56.491Z,41.77
2018-09-29T12:16:09.602Z,41.52
2018-09-29T12:17:06.333Z,41.44
2018-09-29T12:18:19.666Z,39.55
2018-09-29T12:19:44.344Z,38.79
2018-09-29T12:20:23.052Z,37.65
2018-09-29T12:21:32.379Z,36.98
2018-09-29T12:23:35.544Z,34.20
2018-09-29T12:25:48.999Z,33.57
2018-09-29T12:26:50.450Z,33.47
2018-09-29T12:29:06.743Z,31.87
2018-09-29T12:30:15.557Z,29.28
2018-09-29T12:31:23.351Z,28.23
2018-09-29T12:32:27.967Z,27.30
2018-09-29T12:33:49.688Z,26.54
2018-09-29T12:34:32.388Z,26.09
2018-09-29T12:36:03.914Z,24.75
2018-09-29T12:37:01.702Z,23.80
2018-09-29T12:38:50.565Z,20.01
2018-09-29T12:39:55.580Z,20.41
2018-09-29T12:41:11.666Z,20.43
2018-09-29T12:42:17.515Z,19.16
2018-09-29T12:43:17.211Z,19.66
2018-09-29T12:44:12.099Z,18.98
2018-09-29T12:45:28.391Z,18.98
2018-09-29T12:46:26.454Z,18.09
2018-09-29T12:47:39.281Z,17.31
2018-09-29T12:49:39.693Z,17.52
2018-09-29T12:50:58.753Z,16.94
2018-09-29T12:52:59.899Z,15.49
2018-09-29T12:54:07.479Z,15.50
2018-09-29T12:55:15.275Z,14.72
2018-09-29T12:56:21.117Z,14.14
2018-09-29T12:58:34.354Z,12.97
2018-09-29T12:59:35.279Z,12.09
2018-09-29T13:00:45.221Z,11.79
2018-09-29T13:02:01.108Z,12.59
2018-09-29T13:03:01.219Z,11.31
2018-09-29T13:03:54.879Z,11.51
2018-09-29T13:05:07.419Z,10.72
2018-09-29T13:07:20.707Z,10.83
2018-09-29T13:08:32.493Z,10.34
2018-09-29T13:09:23.285Z,9.45
2018-09-29T13:11:39.581Z,9.27
2018-09-29T13:12:44.406Z,8.67
2018-09-29T13:13:51.691Z,8.87
2018-09-29T13:16:12.689Z,8.87
2018-09-29T13:17:28.982Z,8.67
2018-09-29T13:18:18.956Z,8.38
2018-09-29T13:20:39.774Z,7.79
2018-09-29T13:21:29.120Z,7.80
2018-09-29T13:22:51.504Z,7.10
2018-09-29T13:24:44.406Z,7.21
2018-09-29T13:25:54.970Z,6.92
2018-09-29T13:26:47.905Z,6.82
2018-09-29T13:29:05.026Z,6.02
2018-09-29T13:32:25.136Z,5.73
2018-09-29T13:33:45.206Z,5.54
2018-09-29T13:34:34.358Z,4.63
2018-09-29T13:35:41.945Z,5.04
2018-09-29T13:38:01.635Z,4.74
2018-09-29T13:39:18.940Z,4.73
2018-09-29T13:40:19.061Z,4.22
2018-09-29T13:41:09.339Z,4.12
2018-09-29T13:42:16.010Z,4.91
2018-09-29T13:43:30.658Z,6.10
2018-09-29T13:44:41.520Z,6.49
2018-09-29T13:46:40.919Z,8.93
2018-09-29T13:47:52.911Z,9.30
2018-09-29T13:50:01.632Z,10.74
2018-09-29T13:51:02.357Z,12.00
2018-09-29T13:52:05.030Z,12.46
2018-09-29T13:53:03.095Z,13.72
2018-09-29T13:55:29.732Z,15.73
2018-09-29T13:56:24.809Z,16.99
2018-09-29T13:58:17.881Z,17.17
2018-09-29T13:58:38.051Z,18.71
2018-09-29T14:00:55.388Z,20.04
2018-09-29T14:02:06.381Z,20.52
2018-09-29T14:03:15.573Z,21.18
2018-09-29T14:04:09.129Z,21.56
2018-09-29T14:05:10.981Z,22.71
2018-09-29T14:06:26.761Z,22.79
2018-09-29T14:07:30.570Z,23.16
2018-09-29T14:08:25.144Z,23.83
2018-09-29T14:09:36.825Z,24.50
2018-09-29T14:10:46.871Z,24.19
2018-09-29T14:12:55.905Z,25.15
2018-09-29T14:14:08.501Z,25.72
2018-09-29T14:14:58.077Z,26.29
2018-09-29T14:16:07.088Z,27.04
2018-09-29T14:17:20.417Z,27.82
2018-09-29T14:18:23.502Z,28.48
2018-09-29T14:19:16.740Z,29.53
2018-09-29T14:20:29.856Z,30.59
2018-09-29T14:21:44.413Z,30.38
2018-09-29T14:22:39.916Z,29.42
2018-09-29T14:24:17.397Z,31.33
2018-09-29T14:25:16.177Z,33.07
2018-09-29T14:26:26.426Z,33.34
2018-09-29T14:28:22.556Z,33.63
2018-09-29T14:29:26.768Z,33.81
2018-09-29T14:30:33.532Z,33.42
2018-09-29T14:31:32.824Z,33.89
2018-09-29T14:32:42.559Z,34.08
2018-09-29T14:33:37.957Z,34.46
2018-09-29T14:34:38.681Z,34.64
2018-09-29T14:36:59.196Z,34.54
2018-09-29T14:38:02.061Z,34.43
2018-09-29T14:39:12.207Z,35.00
2018-09-29T14:40:18.975Z,34.81
2018-09-29T14:41:16.936Z,35.10
2018-09-29T14:42:29.243Z,35.77
2018-09-29T14:43:38.151Z,35.20
2018-09-29T14:44:36.823Z,36.24
2018-09-29T14:45:37.857Z,36.24
2018-09-29T14:46:45.138Z,36.82
2018-09-29T14:47:55.182Z,36.33
2018-09-29T14:50:06.371Z,37.59
2018-09-29T14:52:25.562Z,37.76
2018-09-29T14:54:25.351Z,39.97
2018-09-29T14:56:41.758Z,40.06
2018-09-29T14:57:46.697Z,40.05
2018-09-29T14:58:46.586Z,39.85
2018-09-29T14:59:55.804Z,40.33
2018-09-29T15:02:02.478Z,40.05
2018-09-29T15:03:23.890Z,40.52
2018-09-29T15:04:27.004Z,40.52
2018-09-29T15:05:21.859Z,41.67
2018-09-29T15:06:54.505Z,41.87
2018-09-29T15:07:36.522Z,42.04
2018-09-29T15:08:43.702Z,41.27
2018-09-29T15:10:06.616Z,41.66
2018-09-29T15:10:47.201Z,42.04
2018-09-29T15:11:55.093Z,41.46
2018-09-29T15:13:04.838Z,41.37
2018-09-29T15:15:17.547Z,41.17
2018-09-29T15:16:11.000Z,42.61
2018-09-29T15:17:31.394Z,42.52
2018-09-29T15:18:23.714Z,42.33
2018-09-29T15:20:30.904Z,41.93
2018-09-29T15:21:36.347Z,42.11
2018-09-29T15:22:53.144Z,41.93
2018-09-29T15:23:50.285Z,42.11
2018-09-29T15:24:55.105Z,41.25
2018-09-29T15:26:05.565Z,41.63
2018-09-29T15:27:05.261Z,42.40
2018-09-29T15:28:24.421Z,41.35
2018-09-29T15:30:32.220Z,42.02
2018-09-29T15:31:25.470Z,42.60
2018-09-29T15:32:34.286Z,42.30
2018-09-29T15:33:41.670Z,42.98
2018-09-29T15:36:55.329Z,44.03
2018-09-29T15:38:04.233Z,43.84
2018-09-29T15:39:12.538Z,43.73
2018-09-29T15:40:16.644Z,43.65
2018-09-29T15:41:21.361Z,43.63
2018-09-29T15:43:38.379Z,44.01
2018-09-29T15:44:45.556Z,44.30
2018-09-29T15:45:40.239Z,44.40
2018-09-29T15:47:51.728Z,44.97
2018-09-29T15:48:59.519Z,44.68
2018-09-29T15:49:59.322Z,44.20
2018-09-29T15:51:14.493Z,45.07
2018-09-29T15:52:20.434Z,45.74
2018-09-29T15:54:22.294Z,45.54
2018-09-29T15:55:29.513Z,45.16
2018-09-29T15:56:39.409Z,45.52
2018-09-29T15:57:40.549Z,46.79
2018-09-29T15:59:01.149Z,47.25
2018-09-29T15:59:56.949Z,47.44
2018-09-29T16:00:56.341Z,47.53
2018-09-29T16:02:01.677Z,47.06
2018-09-29T16:03:15.409Z,46.96
2018-09-29T16:05:24.540Z,47.25
2018-09-29T16:06:40.425Z,47.25
2018-09-29T16:07:35.619Z,46.77
2018-09-29T16:09:47.010Z,46.58
2018-09-29T16:10:53.046Z,46.58
2018-09-29T16:11:52.961Z,46.29
2018-09-29T16:13:05.463Z,46.77
2018-09-29T16:14:06.081Z,46.96
2018-09-29T16:15:14.384Z,47.44
2018-09-29T16:16:18.185Z,46.77
2018-09-29T16:17:27.109Z,46.96
2018-09-29T16:18:35.096Z,46.67
2018-09-29T16:19:32.139Z,46.86
2018-09-29T16:20:36.854Z,47.73
2018-09-29T16:21:47.653Z,47.44
2018-09-29T16:23:56.031Z,47.44
2018-09-29T16:25:01.162Z,48.30
2018-09-29T16:26:08.851Z,48.21
2018-09-29T16:27:10.192Z,48.30
2018-09-29T16:28:17.382Z,47.44
2018-09-29T16:29:21.167Z,47.25
2018-09-29T16:30:31.415Z,47.44